sensor_id;sensor_type;location;lat;lon;timestamp;P1;durP1;ratioP1;P2;durP2;ratioP2
38266;SDS011;24063;51.794;19.578;2022-09-01T00:00:52;3.09;;;2.90;;
38266;SDS011;24063;51.794;19.578;2022-09-01T00:01:54;2.51;;;2.51;;
38266;SDS011;24063;51.794;19.578;2022-09-01T00:02:56;2.59;;;2.59;;
38266;SDS011;24063;51.794;19.578;2022-09-01T00:03:58;2.41;;;2.41;;
38266;SDS011;24063;51.794;19.578;2022-09-01T00:05:04;1.94;;;1.94;;
38266;SDS011;24063;51.794;19.578;2022-09-01T00:06:07;2.22;;;2.22;;
38266;SDS011;24063;51.794;19.578;2022-09-01T00:07:11;2.45;;;2.45;;
38266;SDS011;24063;51.794;19.578;2022-09-01T00:08:15;2.40;;;2.40;;
38266;SDS011;24063;51.794;19.578;2022-09-01T00:09:20;2.86;;;2.86;;
38266;SDS011;24063;51.794;19.578;2022-09-01T00:10:23;2.30;;;2.30;;
38266;SDS011;24063;51.794;19.578;2022-09-01T00:11:26;2.40;;;2.40;;
38266;SDS011;24063;51.794;19.578;2022-09-01T00:12:29;2.81;;;2.81;;
38266;SDS011;24063;51.794;19.578;2022-09-01T00:13:31;2.79;;;2.79;;
38266;SDS011;24063;51.794;19.578;2022-09-01T00:14:35;2.63;;;2.63;;
38266;SDS011;24063;51.794;19.578;2022-09-01T00:15:42;2.92;;;2.92;;
38266;SDS011;24063;51.794;19.578;2022-09-01T00:16:44;2.37;;;2.37;;
38266;SDS011;24063;51.794;19.578;2022-09-01T00:17:50;2.62;;;2.62;;
38266;SDS011;24063;51.794;19.578;2022-09-01T00:18:52;2.47;;;2.47;;
38266;SDS011;24063;51.794;19.578;2022-09-01T00:19:55;2.53;;;2.53;;
38266;SDS011;24063;51.794;19.578;2022-09-01T00:20:57;2.57;;;2.57;;
38266;SDS011;24063;51.794;19.578;2022-09-01T00:21:59;2.53;;;2.53;;
38266;SDS011;24063;51.794;19.578;2022-09-01T00:23:03;2.37;;;2.37;;
38266;SDS011;24063;51.794;19.578;2022-09-01T00:24:04;2.43;;;2.43;;
38266;SDS011;24063;51.794;19.578;2022-09-01T00:25:07;2.68;;;2.68;;
38266;SDS011;24063;51.794;19.578;2022-09-01T00:26:09;2.41;;;2.41;;
38266;SDS011;24063;51.794;19.578;2022-09-01T00:27:12;2.36;;;2.36;;
38266;SDS011;24063;51.794;19.578;2022-09-01T00:28:13;2.30;;;2.30;;
38266;SDS011;24063;51.794;19.578;2022-09-01T00:29:15;2.64;;;2.64;;
38266;SDS011;24063;51.794;19.578;2022-09-01T00:30:17;2.97;;;2.97;;
38266;SDS011;24063;51.794;19.578;2022-09-01T00:31:20;2.67;;;2.67;;
38266;SDS011;24063;51.794;19.578;2022-09-01T00:32:23;2.28;;;2.28;;
38266;SDS011;24063;51.794;19.578;2022-09-01T00:33:25;2.57;;;2.57;;
38266;SDS011;24063;51.794;19.578;2022-09-01T00:34:27;2.97;;;2.97;;
38266;SDS011;24063;51.794;19.578;2022-09-01T00:35:29;2.42;;;2.42;;
38266;SDS011;24063;51.794;19.578;2022-09-01T00:36:37;2.48;;;2.48;;
38266;SDS011;24063;51.794;19.578;2022-09-01T00:37:38;2.91;;;2.91;;
38266;SDS011;24063;51.794;19.578;2022-09-01T00:38:41;2.77;;;2.77;;
38266;SDS011;24063;51.794;19.578;2022-09-01T00:39:43;2.43;;;2.43;;
38266;SDS011;24063;51.794;19.578;2022-09-01T00:40:45;2.60;;;2.60;;
38266;SDS011;24063;51.794;19.578;2022-09-01T00:41:47;2.15;;;2.15;;
38266;SDS011;24063;51.794;19.578;2022-09-01T00:42:51;2.39;;;2.39;;
38266;SDS011;24063;51.794;19.578;2022-09-01T00:43:55;2.15;;;2.15;;
38266;SDS011;24063;51.794;19.578;2022-09-01T00:44:59;2.15;;;2.15;;
38266;SDS011;24063;51.794;19.578;2022-09-01T00:46:02;2.45;;;2.45;;
38266;SDS011;24063;51.794;19.578;2022-09-01T00:47:09;2.63;;;2.63;;
38266;SDS011;24063;51.794;19.578;2022-09-01T00:48:11;2.43;;;2.43;;
38266;SDS011;24063;51.794;19.578;2022-09-01T00:49:32;2.34;;;2.34;;
38266;SDS011;24063;51.794;19.578;2022-09-01T00:50:39;1.92;;;1.92;;
38266;SDS011;24063;51.794;19.578;2022-09-01T00:51:44;2.29;;;2.29;;
38266;SDS011;24063;51.794;19.578;2022-09-01T00:52:51;2.24;;;2.24;;
38266;SDS011;24063;51.794;19.578;2022-09-01T00:53:56;2.26;;;2.26;;
38266;SDS011;24063;51.794;19.578;2022-09-01T00:55:07;2.22;;;2.22;;
38266;SDS011;24063;51.794;19.578;2022-09-01T00:56:13;2.12;;;2.12;;
38266;SDS011;24063;51.794;19.578;2022-09-01T00:57:16;2.22;;;2.22;;
38266;SDS011;24063;51.794;19.578;2022-09-01T00:58:18;2.31;;;2.31;;
38266;SDS011;24063;51.794;19.578;2022-09-01T00:59:21;2.06;;;2.06;;
38266;SDS011;24063;51.794;19.578;2022-09-01T01:00:27;2.12;;;2.12;;
38266;SDS011;24063;51.794;19.578;2022-09-01T01:01:31;2.18;;;2.18;;
38266;SDS011;24063;51.794;19.578;2022-09-01T01:02:36;2.40;;;2.40;;
38266;SDS011;24063;51.794;19.578;2022-09-01T01:03:39;2.27;;;2.27;;
38266;SDS011;24063;51.794;19.578;2022-09-01T01:04:42;2.01;;;2.01;;
38266;SDS011;24063;51.794;19.578;2022-09-01T01:05:48;2.67;;;2.67;;
38266;SDS011;24063;51.794;19.578;2022-09-01T01:06:56;2.18;;;2.18;;
38266;SDS011;24063;51.794;19.578;2022-09-01T01:08:02;2.56;;;2.56;;
38266;SDS011;24063;51.794;19.578;2022-09-01T01:09:05;2.39;;;2.39;;
38266;SDS011;24063;51.794;19.578;2022-09-01T01:10:07;2.29;;;2.29;;
38266;SDS011;24063;51.794;19.578;2022-09-01T01:11:12;2.27;;;2.27;;
38266;SDS011;24063;51.794;19.578;2022-09-01T01:12:19;2.11;;;2.11;;
38266;SDS011;24063;51.794;19.578;2022-09-01T01:13:22;1.97;;;1.97;;
38266;SDS011;24063;51.794;19.578;2022-09-01T01:14:27;1.99;;;1.99;;
38266;SDS011;24063;51.794;19.578;2022-09-01T01:15:32;1.93;;;1.93;;
38266;SDS011;24063;51.794;19.578;2022-09-01T01:16:34;1.83;;;1.83;;
38266;SDS011;24063;51.794;19.578;2022-09-01T01:17:36;2.16;;;2.16;;
38266;SDS011;24063;51.794;19.578;2022-09-01T01:18:38;2.23;;;2.23;;
38266;SDS011;24063;51.794;19.578;2022-09-01T01:19:47;2.42;;;2.42;;
38266;SDS011;24063;51.794;19.578;2022-09-01T01:21:16;2.11;;;2.11;;
38266;SDS011;24063;51.794;19.578;2022-09-01T01:24:30;2.27;;;2.27;;
38266;SDS011;24063;51.794;19.578;2022-09-01T01:25:38;2.59;;;2.59;;
38266;SDS011;24063;51.794;19.578;2022-09-01T01:26:46;1.98;;;1.98;;
38266;SDS011;24063;51.794;19.578;2022-09-01T01:27:49;2.20;;;2.20;;
38266;SDS011;24063;51.794;19.578;2022-09-01T01:28:51;2.16;;;2.16;;
38266;SDS011;24063;51.794;19.578;2022-09-01T01:29:56;2.11;;;2.11;;
38266;SDS011;24063;51.794;19.578;2022-09-01T01:30:59;2.25;;;2.25;;
38266;SDS011;24063;51.794;19.578;2022-09-01T01:32:06;2.12;;;2.12;;
38266;SDS011;24063;51.794;19.578;2022-09-01T01:33:13;2.12;;;2.12;;
38266;SDS011;24063;51.794;19.578;2022-09-01T01:34:16;2.36;;;2.36;;
38266;SDS011;24063;51.794;19.578;2022-09-01T01:35:19;2.02;;;2.02;;
38266;SDS011;24063;51.794;19.578;2022-09-01T01:36:23;2.07;;;2.07;;
38266;SDS011;24063;51.794;19.578;2022-09-01T01:37:34;2.15;;;2.15;;
38266;SDS011;24063;51.794;19.578;2022-09-01T01:38:36;2.12;;;2.12;;
38266;SDS011;24063;51.794;19.578;2022-09-01T01:39:39;2.22;;;2.22;;
38266;SDS011;24063;51.794;19.578;2022-09-01T01:40:44;2.22;;;2.22;;
38266;SDS011;24063;51.794;19.578;2022-09-01T01:41:46;1.95;;;1.95;;
38266;SDS011;24063;51.794;19.578;2022-09-01T01:42:51;2.19;;;2.19;;
38266;SDS011;24063;51.794;19.578;2022-09-01T01:43:58;1.94;;;1.94;;
38266;SDS011;24063;51.794;19.578;2022-09-01T01:45:05;2.00;;;2.00;;
38266;SDS011;24063;51.794;19.578;2022-09-01T01:46:09;2.45;;;2.45;;
38266;SDS011;24063;51.794;19.578;2022-09-01T01:47:12;2.06;;;2.06;;
38266;SDS011;24063;51.794;19.578;2022-09-01T01:48:14;1.92;;;1.92;;
38266;SDS011;24063;51.794;19.578;2022-09-01T01:49:25;1.90;;;1.90;;
38266;SDS011;24063;51.794;19.578;2022-09-01T01:50:30;2.41;;;2.41;;
38266;SDS011;24063;51.794;19.578;2022-09-01T01:51:36;2.21;;;2.21;;
38266;SDS011;24063;51.794;19.578;2022-09-01T01:52:38;2.16;;;2.16;;
38266;SDS011;24063;51.794;19.578;2022-09-01T01:53:46;2.36;;;2.36;;
38266;SDS011;24063;51.794;19.578;2022-09-01T01:54:53;2.24;;;2.24;;
38266;SDS011;24063;51.794;19.578;2022-09-01T01:55:55;2.06;;;2.06;;
38266;SDS011;24063;51.794;19.578;2022-09-01T01:57:02;2.18;;;2.18;;
38266;SDS011;24063;51.794;19.578;2022-09-01T01:58:04;2.18;;;2.18;;
38266;SDS011;24063;51.794;19.578;2022-09-01T01:59:10;2.01;;;2.01;;
38266;SDS011;24063;51.794;19.578;2022-09-01T02:00:18;2.30;;;2.30;;
38266;SDS011;24063;51.794;19.578;2022-09-01T02:01:30;2.09;;;2.09;;
38266;SDS011;24063;51.794;19.578;2022-09-01T02:02:32;2.18;;;2.18;;
38266;SDS011;24063;51.794;19.578;2022-09-01T02:03:34;1.94;;;1.94;;
38266;SDS011;24063;51.794;19.578;2022-09-01T02:04:40;2.04;;;2.04;;
38266;SDS011;24063;51.794;19.578;2022-09-01T02:05:42;2.00;;;2.00;;
38266;SDS011;24063;51.794;19.578;2022-09-01T02:06:45;2.06;;;2.06;;
38266;SDS011;24063;51.794;19.578;2022-09-01T02:07:50;2.04;;;2.04;;
38266;SDS011;24063;51.794;19.578;2022-09-01T02:09:00;2.13;;;2.13;;
38266;SDS011;24063;51.794;19.578;2022-09-01T02:10:04;2.17;;;2.17;;
38266;SDS011;24063;51.794;19.578;2022-09-01T02:11:06;2.22;;;2.22;;
38266;SDS011;24063;51.794;19.578;2022-09-01T02:12:09;2.36;;;2.36;;
38266;SDS011;24063;51.794;19.578;2022-09-01T02:13:16;2.35;;;2.35;;
38266;SDS011;24063;51.794;19.578;2022-09-01T02:14:21;2.03;;;2.03;;
38266;SDS011;24063;51.794;19.578;2022-09-01T02:15:23;2.06;;;2.06;;
38266;SDS011;24063;51.794;19.578;2022-09-01T02:16:27;2.23;;;2.23;;
38266;SDS011;24063;51.794;19.578;2022-09-01T02:17:30;2.18;;;2.18;;
38266;SDS011;24063;51.794;19.578;2022-09-01T02:18:33;2.24;;;2.24;;
38266;SDS011;24063;51.794;19.578;2022-09-01T02:19:38;2.06;;;2.06;;
38266;SDS011;24063;51.794;19.578;2022-09-01T02:20:46;1.97;;;1.97;;
38266;SDS011;24063;51.794;19.578;2022-09-01T02:21:50;2.25;;;2.25;;
38266;SDS011;24063;51.794;19.578;2022-09-01T02:22:56;2.53;;;2.53;;
38266;SDS011;24063;51.794;19.578;2022-09-01T02:23:59;2.17;;;2.17;;
38266;SDS011;24063;51.794;19.578;2022-09-01T02:25:04;2.39;;;2.39;;
38266;SDS011;24063;51.794;19.578;2022-09-01T02:26:07;2.53;;;2.53;;
38266;SDS011;24063;51.794;19.578;2022-09-01T02:27:17;2.20;;;2.20;;
38266;SDS011;24063;51.794;19.578;2022-09-01T02:28:24;2.22;;;2.22;;
38266;SDS011;24063;51.794;19.578;2022-09-01T02:29:28;2.28;;;2.28;;
38266;SDS011;24063;51.794;19.578;2022-09-01T02:30:34;2.31;;;2.31;;
38266;SDS011;24063;51.794;19.578;2022-09-01T02:31:38;2.51;;;2.51;;
38266;SDS011;24063;51.794;19.578;2022-09-01T02:32:40;2.45;;;2.45;;
38266;SDS011;24063;51.794;19.578;2022-09-01T02:33:42;2.29;;;2.29;;
38266;SDS011;24063;51.794;19.578;2022-09-01T02:34:48;2.58;;;2.58;;
38266;SDS011;24063;51.794;19.578;2022-09-01T02:35:54;2.42;;;2.42;;
38266;SDS011;24063;51.794;19.578;2022-09-01T02:37:01;2.43;;;2.43;;
38266;SDS011;24063;51.794;19.578;2022-09-01T02:38:03;2.10;;;2.10;;
38266;SDS011;24063;51.794;19.578;2022-09-01T02:39:05;2.37;;;2.37;;
38266;SDS011;24063;51.794;19.578;2022-09-01T02:40:08;2.33;;;2.33;;
38266;SDS011;24063;51.794;19.578;2022-09-01T02:41:11;2.35;;;2.35;;
38266;SDS011;24063;51.794;19.578;2022-09-01T02:42:14;2.38;;;2.38;;
38266;SDS011;24063;51.794;19.578;2022-09-01T02:43:16;2.38;;;2.38;;
38266;SDS011;24063;51.794;19.578;2022-09-01T02:44:21;2.56;;;2.56;;
38266;SDS011;24063;51.794;19.578;2022-09-01T02:45:23;2.46;;;2.46;;
38266;SDS011;24063;51.794;19.578;2022-09-01T02:46:25;2.50;;;2.50;;
38266;SDS011;24063;51.794;19.578;2022-09-01T02:47:27;2.40;;;2.40;;
38266;SDS011;24063;51.794;19.578;2022-09-01T02:49:33;2.29;;;2.29;;
38266;SDS011;24063;51.794;19.578;2022-09-01T02:50:36;2.30;;;2.30;;
38266;SDS011;24063;51.794;19.578;2022-09-01T02:51:43;2.16;;;2.16;;
38266;SDS011;24063;51.794;19.578;2022-09-01T02:52:47;2.31;;;2.31;;
38266;SDS011;24063;51.794;19.578;2022-09-01T02:53:51;2.33;;;2.33;;
38266;SDS011;24063;51.794;19.578;2022-09-01T02:54:53;1.83;;;1.83;;
38266;SDS011;24063;51.794;19.578;2022-09-01T02:55:56;2.32;;;2.32;;
38266;SDS011;24063;51.794;19.578;2022-09-01T02:56:59;2.48;;;2.48;;
38266;SDS011;24063;51.794;19.578;2022-09-01T02:58:02;2.72;;;2.72;;
38266;SDS011;24063;51.794;19.578;2022-09-01T02:59:04;2.23;;;2.23;;
38266;SDS011;24063;51.794;19.578;2022-09-01T03:00:07;2.49;;;2.49;;
38266;SDS011;24063;51.794;19.578;2022-09-01T03:01:27;2.48;;;2.48;;
38266;SDS011;24063;51.794;19.578;2022-09-01T03:02:31;2.39;;;2.39;;
38266;SDS011;24063;51.794;19.578;2022-09-01T03:03:37;2.46;;;2.46;;
38266;SDS011;24063;51.794;19.578;2022-09-01T03:04:39;2.40;;;2.40;;
38266;SDS011;24063;51.794;19.578;2022-09-01T03:05:42;2.22;;;2.22;;
38266;SDS011;24063;51.794;19.578;2022-09-01T03:06:44;2.39;;;2.39;;
38266;SDS011;24063;51.794;19.578;2022-09-01T03:07:48;2.24;;;2.24;;
38266;SDS011;24063;51.794;19.578;2022-09-01T03:08:54;2.10;;;2.10;;
38266;SDS011;24063;51.794;19.578;2022-09-01T03:10:00;1.99;;;1.99;;
38266;SDS011;24063;51.794;19.578;2022-09-01T03:11:04;2.25;;;2.25;;
38266;SDS011;24063;51.794;19.578;2022-09-01T03:12:14;2.31;;;2.31;;
38266;SDS011;24063;51.794;19.578;2022-09-01T03:13:17;2.35;;;2.35;;
38266;SDS011;24063;51.794;19.578;2022-09-01T03:14:22;2.31;;;2.31;;
38266;SDS011;24063;51.794;19.578;2022-09-01T03:15:24;2.22;;;2.22;;
38266;SDS011;24063;51.794;19.578;2022-09-01T03:16:28;2.36;;;2.36;;
38266;SDS011;24063;51.794;19.578;2022-09-01T03:17:33;2.05;;;2.05;;
38266;SDS011;24063;51.794;19.578;2022-09-01T03:18:35;2.30;;;2.30;;
38266;SDS011;24063;51.794;19.578;2022-09-01T03:19:40;2.35;;;2.35;;
38266;SDS011;24063;51.794;19.578;2022-09-01T03:20:46;2.34;;;2.34;;
38266;SDS011;24063;51.794;19.578;2022-09-01T03:21:48;2.21;;;2.21;;
38266;SDS011;24063;51.794;19.578;2022-09-01T03:22:54;2.07;;;2.07;;
38266;SDS011;24063;51.794;19.578;2022-09-01T03:23:58;2.38;;;2.38;;
38266;SDS011;24063;51.794;19.578;2022-09-01T03:25:02;2.28;;;2.28;;
38266;SDS011;24063;51.794;19.578;2022-09-01T03:26:04;2.25;;;2.25;;
38266;SDS011;24063;51.794;19.578;2022-09-01T03:27:06;2.30;;;2.30;;
38266;SDS011;24063;51.794;19.578;2022-09-01T03:28:09;2.36;;;2.36;;
38266;SDS011;24063;51.794;19.578;2022-09-01T03:29:13;2.24;;;2.24;;
38266;SDS011;24063;51.794;19.578;2022-09-01T03:30:15;2.14;;;2.14;;
38266;SDS011;24063;51.794;19.578;2022-09-01T03:31:18;2.32;;;2.32;;
38266;SDS011;24063;51.794;19.578;2022-09-01T03:32:22;2.14;;;2.14;;
38266;SDS011;24063;51.794;19.578;2022-09-01T03:33:26;2.23;;;2.23;;
38266;SDS011;24063;51.794;19.578;2022-09-01T03:34:29;3.14;;;3.14;;
38266;SDS011;24063;51.794;19.578;2022-09-01T03:35:35;2.53;;;2.53;;
38266;SDS011;24063;51.794;19.578;2022-09-01T03:36:37;2.44;;;2.44;;
38266;SDS011;24063;51.794;19.578;2022-09-01T03:37:40;2.02;;;2.02;;
38266;SDS011;24063;51.794;19.578;2022-09-01T03:38:47;2.18;;;2.18;;
38266;SDS011;24063;51.794;19.578;2022-09-01T03:39:52;2.19;;;2.19;;
38266;SDS011;24063;51.794;19.578;2022-09-01T03:41:00;1.97;;;1.97;;
38266;SDS011;24063;51.794;19.578;2022-09-01T03:42:04;1.97;;;1.97;;
38266;SDS011;24063;51.794;19.578;2022-09-01T03:43:09;2.01;;;2.01;;
38266;SDS011;24063;51.794;19.578;2022-09-01T03:44:12;1.95;;;1.95;;
38266;SDS011;24063;51.794;19.578;2022-09-01T03:45:16;1.80;;;1.80;;
38266;SDS011;24063;51.794;19.578;2022-09-01T03:46:21;1.82;;;1.82;;
38266;SDS011;24063;51.794;19.578;2022-09-01T03:47:24;2.21;;;2.21;;
38266;SDS011;24063;51.794;19.578;2022-09-01T03:48:28;1.98;;;1.98;;
38266;SDS011;24063;51.794;19.578;2022-09-01T03:49:32;2.17;;;2.17;;
38266;SDS011;24063;51.794;19.578;2022-09-01T03:50:38;2.14;;;2.14;;
38266;SDS011;24063;51.794;19.578;2022-09-01T03:51:47;2.11;;;2.11;;
38266;SDS011;24063;51.794;19.578;2022-09-01T03:52:54;2.01;;;2.01;;
38266;SDS011;24063;51.794;19.578;2022-09-01T03:53:59;1.93;;;1.93;;
38266;SDS011;24063;51.794;19.578;2022-09-01T03:55:01;1.76;;;1.76;;
38266;SDS011;24063;51.794;19.578;2022-09-01T03:56:03;1.73;;;1.73;;
38266;SDS011;24063;51.794;19.578;2022-09-01T03:57:06;1.91;;;1.91;;
38266;SDS011;24063;51.794;19.578;2022-09-01T03:58:10;2.13;;;2.13;;
38266;SDS011;24063;51.794;19.578;2022-09-01T03:59:19;1.79;;;1.79;;
38266;SDS011;24063;51.794;19.578;2022-09-01T04:00:23;1.97;;;1.97;;
38266;SDS011;24063;51.794;19.578;2022-09-01T04:01:30;2.02;;;2.02;;
38266;SDS011;24063;51.794;19.578;2022-09-01T04:02:38;2.07;;;2.07;;
38266;SDS011;24063;51.794;19.578;2022-09-01T04:03:41;2.15;;;2.15;;
38266;SDS011;24063;51.794;19.578;2022-09-01T04:04:42;2.56;;;2.56;;
38266;SDS011;24063;51.794;19.578;2022-09-01T04:05:44;2.14;;;2.14;;
38266;SDS011;24063;51.794;19.578;2022-09-01T04:06:46;2.05;;;2.05;;
38266;SDS011;24063;51.794;19.578;2022-09-01T04:07:48;2.47;;;2.47;;
38266;SDS011;24063;51.794;19.578;2022-09-01T04:08:51;2.53;;;2.53;;
38266;SDS011;24063;51.794;19.578;2022-09-01T04:09:58;2.37;;;2.37;;
38266;SDS011;24063;51.794;19.578;2022-09-01T04:11:01;2.38;;;2.38;;
38266;SDS011;24063;51.794;19.578;2022-09-01T04:12:10;2.77;;;2.77;;
38266;SDS011;24063;51.794;19.578;2022-09-01T04:13:21;2.74;;;2.74;;
38266;SDS011;24063;51.794;19.578;2022-09-01T04:14:33;2.91;;;2.91;;
38266;SDS011;24063;51.794;19.578;2022-09-01T04:15:35;2.48;;;2.48;;
38266;SDS011;24063;51.794;19.578;2022-09-01T04:16:38;2.67;;;2.67;;
38266;SDS011;24063;51.794;19.578;2022-09-01T04:17:59;2.66;;;2.66;;
38266;SDS011;24063;51.794;19.578;2022-09-01T04:19:11;2.98;;;2.98;;
38266;SDS011;24063;51.794;19.578;2022-09-01T04:20:26;2.91;;;2.91;;
38266;SDS011;24063;51.794;19.578;2022-09-01T04:21:28;3.33;;;3.33;;
38266;SDS011;24063;51.794;19.578;2022-09-01T04:22:32;3.12;;;3.12;;
38266;SDS011;24063;51.794;19.578;2022-09-01T04:23:35;2.98;;;2.98;;
38266;SDS011;24063;51.794;19.578;2022-09-01T04:24:40;3.14;;;3.14;;
38266;SDS011;24063;51.794;19.578;2022-09-01T04:25:46;2.91;;;2.91;;
38266;SDS011;24063;51.794;19.578;2022-09-01T04:26:51;2.58;;;2.58;;
38266;SDS011;24063;51.794;19.578;2022-09-01T04:27:54;2.74;;;2.74;;
38266;SDS011;24063;51.794;19.578;2022-09-01T04:28:57;2.46;;;2.46;;
38266;SDS011;24063;51.794;19.578;2022-09-01T04:29:59;2.81;;;2.81;;
38266;SDS011;24063;51.794;19.578;2022-09-01T04:31:04;2.45;;;2.45;;
38266;SDS011;24063;51.794;19.578;2022-09-01T04:32:10;2.57;;;2.57;;
38266;SDS011;24063;51.794;19.578;2022-09-01T04:33:16;2.61;;;2.61;;
38266;SDS011;24063;51.794;19.578;2022-09-01T04:34:20;2.44;;;2.44;;
38266;SDS011;24063;51.794;19.578;2022-09-01T04:35:23;2.37;;;2.37;;
38266;SDS011;24063;51.794;19.578;2022-09-01T04:36:39;2.61;;;2.61;;
38266;SDS011;24063;51.794;19.578;2022-09-01T04:37:43;2.57;;;2.57;;
38266;SDS011;24063;51.794;19.578;2022-09-01T04:38:47;2.89;;;2.89;;
38266;SDS011;24063;51.794;19.578;2022-09-01T04:39:55;2.65;;;2.65;;
38266;SDS011;24063;51.794;19.578;2022-09-01T04:41:01;2.65;;;2.65;;
38266;SDS011;24063;51.794;19.578;2022-09-01T04:42:06;2.64;;;2.64;;
38266;SDS011;24063;51.794;19.578;2022-09-01T04:43:09;2.71;;;2.71;;
38266;SDS011;24063;51.794;19.578;2022-09-01T04:44:12;2.62;;;2.62;;
38266;SDS011;24063;51.794;19.578;2022-09-01T04:45:19;2.69;;;2.69;;
38266;SDS011;24063;51.794;19.578;2022-09-01T04:46:26;2.49;;;2.49;;
38266;SDS011;24063;51.794;19.578;2022-09-01T04:47:31;2.57;;;2.57;;
38266;SDS011;24063;51.794;19.578;2022-09-01T04:48:40;2.21;;;2.21;;
38266;SDS011;24063;51.794;19.578;2022-09-01T04:49:47;2.54;;;2.54;;
38266;SDS011;24063;51.794;19.578;2022-09-01T04:50:49;2.39;;;2.39;;
38266;SDS011;24063;51.794;19.578;2022-09-01T04:51:58;2.41;;;2.41;;
38266;SDS011;24063;51.794;19.578;2022-09-01T04:53:02;2.69;;;2.69;;
38266;SDS011;24063;51.794;19.578;2022-09-01T04:54:12;2.43;;;2.43;;
38266;SDS011;24063;51.794;19.578;2022-09-01T04:55:16;2.23;;;2.23;;
38266;SDS011;24063;51.794;19.578;2022-09-01T04:56:19;2.36;;;2.36;;
38266;SDS011;24063;51.794;19.578;2022-09-01T04:57:47;2.47;;;2.47;;
38266;SDS011;24063;51.794;19.578;2022-09-01T04:58:51;2.59;;;2.59;;
38266;SDS011;24063;51.794;19.578;2022-09-01T04:59:56;2.50;;;2.50;;
38266;SDS011;24063;51.794;19.578;2022-09-01T05:00:59;2.11;;;2.11;;
38266;SDS011;24063;51.794;19.578;2022-09-01T05:02:07;2.46;;;2.46;;
38266;SDS011;24063;51.794;19.578;2022-09-01T05:03:10;2.40;;;2.40;;
38266;SDS011;24063;51.794;19.578;2022-09-01T05:04:32;2.33;;;2.33;;
38266;SDS011;24063;51.794;19.578;2022-09-01T05:05:42;2.30;;;2.30;;
38266;SDS011;24063;51.794;19.578;2022-09-01T05:06:46;2.11;;;2.11;;
38266;SDS011;24063;51.794;19.578;2022-09-01T05:07:51;2.42;;;2.42;;
38266;SDS011;24063;51.794;19.578;2022-09-01T05:08:56;2.20;;;2.20;;
38266;SDS011;24063;51.794;19.578;2022-09-01T05:10:17;2.33;;;2.33;;
38266;SDS011;24063;51.794;19.578;2022-09-01T05:12:01;2.39;;;2.39;;
38266;SDS011;24063;51.794;19.578;2022-09-01T05:13:19;2.63;;;2.63;;
38266;SDS011;24063;51.794;19.578;2022-09-01T05:14:24;2.46;;;2.46;;
38266;SDS011;24063;51.794;19.578;2022-09-01T05:15:26;2.44;;;2.44;;
38266;SDS011;24063;51.794;19.578;2022-09-01T05:16:30;2.53;;;2.53;;
38266;SDS011;24063;51.794;19.578;2022-09-01T05:17:33;2.76;;;2.76;;
38266;SDS011;24063;51.794;19.578;2022-09-01T05:18:39;2.38;;;2.38;;
38266;SDS011;24063;51.794;19.578;2022-09-01T05:19:48;2.60;;;2.60;;
38266;SDS011;24063;51.794;19.578;2022-09-01T05:20:50;2.55;;;2.55;;
38266;SDS011;24063;51.794;19.578;2022-09-01T05:21:53;2.64;;;2.64;;
38266;SDS011;24063;51.794;19.578;2022-09-01T05:22:58;2.57;;;2.57;;
38266;SDS011;24063;51.794;19.578;2022-09-01T05:24:01;2.45;;;2.45;;
38266;SDS011;24063;51.794;19.578;2022-09-01T05:25:06;2.65;;;2.65;;
38266;SDS011;24063;51.794;19.578;2022-09-01T05:26:17;2.14;;;2.14;;
38266;SDS011;24063;51.794;19.578;2022-09-01T05:27:22;2.29;;;2.29;;
38266;SDS011;24063;51.794;19.578;2022-09-01T05:28:24;2.24;;;2.24;;
38266;SDS011;24063;51.794;19.578;2022-09-01T05:29:27;2.27;;;2.27;;
38266;SDS011;24063;51.794;19.578;2022-09-01T05:30:30;2.07;;;2.07;;
38266;SDS011;24063;51.794;19.578;2022-09-01T05:31:38;2.24;;;2.24;;
38266;SDS011;24063;51.794;19.578;2022-09-01T05:32:41;2.13;;;2.13;;
38266;SDS011;24063;51.794;19.578;2022-09-01T05:33:44;2.09;;;2.09;;
38266;SDS011;24063;51.794;19.578;2022-09-01T05:34:49;2.06;;;2.06;;
38266;SDS011;24063;51.794;19.578;2022-09-01T05:35:55;2.09;;;2.09;;
38266;SDS011;24063;51.794;19.578;2022-09-01T05:37:02;2.05;;;2.05;;
38266;SDS011;24063;51.794;19.578;2022-09-01T05:38:06;1.85;;;1.85;;
38266;SDS011;24063;51.794;19.578;2022-09-01T05:39:11;2.14;;;2.14;;
38266;SDS011;24063;51.794;19.578;2022-09-01T05:40:13;2.25;;;2.25;;
38266;SDS011;24063;51.794;19.578;2022-09-01T05:41:18;1.89;;;1.89;;
38266;SDS011;24063;51.794;19.578;2022-09-01T05:42:21;2.22;;;2.22;;
38266;SDS011;24063;51.794;19.578;2022-09-01T05:43:23;2.18;;;2.18;;
38266;SDS011;24063;51.794;19.578;2022-09-01T05:44:28;2.10;;;2.10;;
38266;SDS011;24063;51.794;19.578;2022-09-01T05:45:29;1.91;;;1.91;;
38266;SDS011;24063;51.794;19.578;2022-09-01T05:46:52;1.84;;;1.84;;
38266;SDS011;24063;51.794;19.578;2022-09-01T05:47:56;2.23;;;2.23;;
38266;SDS011;24063;51.794;19.578;2022-09-01T05:49:00;2.10;;;2.10;;
38266;SDS011;24063;51.794;19.578;2022-09-01T05:50:04;2.32;;;2.32;;
38266;SDS011;24063;51.794;19.578;2022-09-01T05:51:15;1.97;;;1.97;;
38266;SDS011;24063;51.794;19.578;2022-09-01T05:52:41;1.93;;;1.93;;
38266;SDS011;24063;51.794;19.578;2022-09-01T05:53:45;1.58;;;1.58;;
38266;SDS011;24063;51.794;19.578;2022-09-01T05:54:52;1.86;;;1.86;;
38266;SDS011;24063;51.794;19.578;2022-09-01T05:55:55;2.30;;;2.30;;
38266;SDS011;24063;51.794;19.578;2022-09-01T05:56:57;1.75;;;1.75;;
38266;SDS011;24063;51.794;19.578;2022-09-01T05:58:19;2.12;;;2.12;;
38266;SDS011;24063;51.794;19.578;2022-09-01T05:59:22;2.02;;;2.02;;
38266;SDS011;24063;51.794;19.578;2022-09-01T06:00:28;2.28;;;2.28;;
38266;SDS011;24063;51.794;19.578;2022-09-01T06:01:35;2.41;;;2.41;;
38266;SDS011;24063;51.794;19.578;2022-09-01T06:02:41;2.14;;;2.14;;
38266;SDS011;24063;51.794;19.578;2022-09-01T06:03:51;2.24;;;2.24;;
38266;SDS011;24063;51.794;19.578;2022-09-01T06:04:58;1.76;;;1.76;;
38266;SDS011;24063;51.794;19.578;2022-09-01T06:06:04;1.88;;;1.88;;
38266;SDS011;24063;51.794;19.578;2022-09-01T06:07:13;2.04;;;2.04;;
38266;SDS011;24063;51.794;19.578;2022-09-01T06:08:23;2.18;;;2.18;;
38266;SDS011;24063;51.794;19.578;2022-09-01T06:09:29;2.14;;;2.14;;
38266;SDS011;24063;51.794;19.578;2022-09-01T06:10:31;1.97;;;1.97;;
38266;SDS011;24063;51.794;19.578;2022-09-01T06:11:36;1.97;;;1.97;;
38266;SDS011;24063;51.794;19.578;2022-09-01T06:12:38;1.91;;;1.91;;
38266;SDS011;24063;51.794;19.578;2022-09-01T06:13:41;1.98;;;1.98;;
38266;SDS011;24063;51.794;19.578;2022-09-01T06:14:43;2.02;;;2.02;;
38266;SDS011;24063;51.794;19.578;2022-09-01T06:15:48;2.19;;;2.19;;
38266;SDS011;24063;51.794;19.578;2022-09-01T06:16:51;1.96;;;1.96;;
38266;SDS011;24063;51.794;19.578;2022-09-01T06:17:55;1.81;;;1.81;;
38266;SDS011;24063;51.794;19.578;2022-09-01T06:18:57;1.62;;;1.62;;
38266;SDS011;24063;51.794;19.578;2022-09-01T06:19:59;2.15;;;2.15;;
38266;SDS011;24063;51.794;19.578;2022-09-01T06:21:03;2.02;;;2.02;;
38266;SDS011;24063;51.794;19.578;2022-09-01T06:22:08;2.16;;;2.16;;
38266;SDS011;24063;51.794;19.578;2022-09-01T06:23:11;2.22;;;2.22;;
38266;SDS011;24063;51.794;19.578;2022-09-01T06:24:16;1.97;;;1.97;;
38266;SDS011;24063;51.794;19.578;2022-09-01T06:25:19;1.82;;;1.82;;
38266;SDS011;24063;51.794;19.578;2022-09-01T06:26:22;2.00;;;2.00;;
38266;SDS011;24063;51.794;19.578;2022-09-01T06:27:28;1.56;;;1.56;;
38266;SDS011;24063;51.794;19.578;2022-09-01T06:28:30;1.96;;;1.96;;
38266;SDS011;24063;51.794;19.578;2022-09-01T06:29:32;1.59;;;1.59;;